Time;durP1;ratioP1;P1;durP2;ratioP2;P2;SDS_P1;SDS_P2;PMS_P1;PMS_P2;Temp;Humidity;BMP_temperature;BMP_pressure;BME280_temperature;BME280_humidity;BME280_pressure;Samples;Min_cycle;Max_cycle;Signal;HPM_P1;HPM_P2
2021/05/30 00:00:09;;;;;;;21.42;12.55;;;;;;;-142.75;66.81;78706.66;5011989;28;20037;-75
2021/05/30 00:02:36;;;;;;;26.17;12.63;;;;;;;-142.75;66.72;78708.63;5012172;28;20029;-75
2021/05/30 00:05:02;;;;;;;19.73;13.23;;;;;;;-142.75;66.85;78708.63;5012346;28;20029;-75
2021/05/30 00:07:27;;;;;;;;;;;;;;;-142.75;66.89;78710.59;5022197;28;20075;-75
2021/05/30 00:09:53;;;;;;;20.17;12.47;;;;;;;-142.75;66.79;78714.53;5002605;28;19913;-74
2021/05/30 00:12:20;;;;;;;19.13;11.97;;;;;;;-142.75;66.88;78718.47;4993894;28;20056;-74
2021/05/30 00:14:45;;;;;;;19.07;12.10;;;;;;;-142.75;66.92;78724.38;5011415;28;20075;-74
2021/05/30 00:17:12;;;;;;;18.95;12.77;;;;;;;-142.75;67.07;78724.38;5003580;28;20120;-74
2021/05/30 00:19:37;;;;;;;19.73;12.50;;;;;;;-142.75;66.90;78730.28;5009770;28;20445;-74
2021/05/30 00:22:03;;;;;;;19.85;13.10;;;;;;;-142.75;66.97;78734.22;5004167;28;20029;-75
2021/05/30 00:24:28;;;;;;;22.48;14.02;;;;;;;-142.75;66.95;78732.25;5012742;28;20490;-74
2021/05/30 00:26:54;;;;;;;18.67;12.45;;;;;;;-142.75;66.87;78736.19;5007239;28;20040;-74
2021/05/30 00:29:19;;;;;;;21.48;12.60;;;;;;;-142.75;67.15;78746.03;5008529;28;20025;-75
2021/05/30 00:31:44;;;;;;;17.80;12.43;;;;;;;-142.75;67.00;78748.03;5012781;28;20017;-74
2021/05/30 00:34:10;;;;;;;21.80;12.60;;;;;;;-142.75;67.18;78757.88;5017660;28;20045;-74
2021/05/30 00:36:35;;;;;;;19.15;12.52;;;;;;;-142.75;67.18;78757.88;5016650;28;20016;-75
2021/05/30 00:39:01;;;;;;;19.73;11.40;;;;;;;-142.75;67.29;78763.78;5033732;28;20021;-75
2021/05/30 00:41:26;;;;;;;19.73;13.02;;;;;;;-142.75;66.98;78767.72;5016295;28;20035;-74
2021/05/30 00:43:53;;;;;;;18.27;12.07;;;;;;;-142.75;67.17;78777.56;5034362;28;20116;-75
2021/05/30 00:46:20;;;;;;;19.47;11.80;;;;;;;-142.75;67.37;78779.53;5012951;28;20030;-75
2021/05/30 00:48:46;;;;;;;18.17;11.27;;;;;;;-142.75;66.71;78797.25;4996784;28;20021;-74
2021/05/30 00:51:12;;;;;;;16.90;11.90;;;;;;;-142.75;66.98;78813.00;5014439;28;20438;-74
2021/05/30 00:53:38;;;;;;;20.50;12.38;;;;;;;-142.75;66.88;78820.88;5014148;28;20080;-74
2021/05/30 00:56:05;;;;;;;19.48;12.88;;;;;;;-142.75;66.96;78832.72;4996121;28;20029;-74
2021/05/30 00:58:31;;;;;;;18.30;11.97;;;;;;;-142.75;67.26;78826.81;5017338;28;20391;-73
2021/05/30 01:00:56;;;;;;;21.02;12.40;;;;;;;-142.75;67.20;78826.81;5033886;28;20025;-74
2021/05/30 01:03:24;;;;;;;18.27;11.63;;;;;;;-142.75;67.18;78830.75;5016031;28;20542;-75
2021/05/30 01:05:50;;;;;;;17.13;12.03;;;;;;;-142.75;66.93;78840.59;5033428;28;20025;-74
2021/05/30 01:08:15;;;;;;;16.40;11.32;;;;;;;-142.75;67.10;78858.31;5033623;28;20550;-74
2021/05/30 01:10:46;;;;;;;18.50;11.65;;;;;;;-142.75;67.20;78848.47;5033742;28;20017;-74
2021/05/30 01:13:13;;;;;;;24.47;12.87;;;;;;;-142.75;67.32;78864.22;5016024;28;20116;-74
2021/05/30 01:15:39;;;;;;;22.13;12.03;;;;;;;-142.75;67.32;78868.16;5033141;28;20475;-74
2021/05/30 01:18:05;;;;;;;23.17;12.85;;;;;;;-142.75;67.24;78872.09;5015975;28;20031;-74
2021/05/30 01:20:31;;;;;;;18.80;11.90;;;;;;;-142.75;67.25;78878.00;5033434;28;20510;-76
2021/05/30 01:23:04;;;;;;;23.15;11.45;;;;;;;-142.75;67.41;78881.94;5033426;28;20025;-74
2021/05/30 01:25:29;;;;;;;19.47;11.63;;;;;;;-142.75;67.33;78889.81;5032991;28;20017;-74
2021/05/30 01:27:55;;;;;;;19.17;11.40;;;;;;;-142.75;67.81;78899.69;5033420;28;20124;-74
2021/05/30 01:30:21;;;;;;;18.33;12.03;;;;;;;-142.75;67.72;78901.66;5015710;28;20268;-74
2021/05/30 01:32:47;;;;;;;19.03;11.50;;;;;;;-142.75;67.80;78905.59;5033258;28;20025;-71
2021/05/30 01:35:14;;;;;;;19.95;12.30;;;;;;;-142.75;67.90;78903.63;5033221;28;20021;-74
2021/05/30 01:37:42;;;;;;;20.33;11.40;;;;;;;-142.75;67.72;78911.50;5011635;28;20113;-72
2021/05/30 01:40:08;;;;;;;17.83;11.40;;;;;;;-142.75;67.44;78913.47;5013419;28;20204;-74
2021/05/30 01:42:34;;;;;;;14.55;9.55;;;;;;;-142.75;67.50;78917.41;5013370;28;20049;-74
2021/05/30 01:45:00;;;;;;;17.45;10.55;;;;;;;-142.75;67.42;78933.16;5013005;28;20026;-73
2021/05/30 01:47:25;;;;;;;17.70;10.75;;;;;;;-142.75;67.19;78939.06;5012972;28;20399;-74
2021/05/30 01:49:51;;;;;;;17.75;10.77;;;;;;;-142.75;67.62;78944.97;4995706;28;20398;-74
2021/05/30 01:52:16;;;;;;;14.93;10.90;;;;;;;-142.75;67.45;78952.84;4995694;28;20488;-74
2021/05/30 01:54:44;;;;;;;19.35;11.68;;;;;;;-142.75;67.77;78952.84;4995506;28;20043;-74
2021/05/30 01:57:10;;;;;;;22.80;12.67;;;;;;;-142.75;68.03;78954.81;5012893;28;20026;-74
2021/05/30 01:59:38;;;;;;;25.02;13.90;;;;;;;-142.75;68.61;78946.94;5013090;28;20022;-75
2021/05/30 02:02:04;;;;;;;23.37;12.73;;;;;;;-142.75;69.48;78944.97;5012889;28;20415;-74
2021/05/30 02:04:34;;;;;;;19.97;13.50;;;;;;;-142.75;69.75;78941.03;4995267;28;20042;-73
2021/05/30 02:07:00;;;;;;;24.37;14.33;;;;;;;-142.75;70.14;78931.19;5012603;28;20488;-73
2021/05/30 02:09:29;;;;;;;20.55;13.25;;;;;;;-142.75;69.89;78913.47;4995427;28;20029;-74
2021/05/30 02:11:54;;;;;;;24.90;13.73;;;;;;;-142.75;69.96;78911.50;4993941;28;20028;-76
2021/05/30 02:14:20;;;;;;;23.15;14.30;;;;;;;-142.75;69.81;78903.63;5012769;28;20022;-74
2021/05/30 02:16:46;;;;;;;21.90;14.68;;;;;;;-142.75;69.97;78895.75;5012380;28;20407;-74
2021/05/30 02:19:11;;;;;;;24.55;14.98;;;;;;;-142.75;70.24;78889.81;5012863;28;20053;-75
2021/05/30 02:21:45;;;;;;;29.48;15.88;;;;;;;-142.75;70.29;78878.00;5012598;28;20459;-76
2021/05/30 02:24:12;;;;;;;26.87;15.40;;;;;;;-142.75;70.37;78876.03;5011387;28;20034;-75
2021/05/30 02:26:37;;;;;;;32.27;16.97;;;;;;;-142.75;70.18;78866.19;4994673;28;20080;-75
2021/05/30 02:29:04;;;;;;;28.63;15.55;;;;;;;-142.75;70.19;78874.06;5017353;28;20194;-75
2021/05/30 02:31:29;;;;;;;32.00;16.27;;;;;;;-142.75;70.11;78874.06;5014514;28;20029;-76
2021/05/30 02:33:55;;;;;;;28.77;17.17;;;;;;;-142.75;70.12;78883.91;5032283;28;20023;-76
2021/05/30 02:36:20;;;;;;;26.40;16.13;;;;;;;-142.75;70.21;78870.13;5031891;28;20552;-75
2021/05/30 02:38:45;;;;;;;36.87;17.40;;;;;;;-142.75;70.09;78874.06;5031554;28;20765;-75
2021/05/30 02:41:11;;;;;;;25.27;15.57;;;;;;;-142.75;69.90;78872.09;5027953;28;20284;-75
2021/05/30 02:43:37;;;;;;;30.15;16.58;;;;;;;-142.75;69.72;78881.94;5027860;28;20036;-75
2021/05/30 02:46:02;;;;;;;33.37;16.20;;;;;;;-142.75;69.78;78878.00;5031734;28;20033;-74
2021/05/30 02:48:28;;;;;;;31.45;18.17;;;;;;;-142.75;69.79;78883.91;5031868;28;20657;-75
2021/05/30 02:51:00;;;;;;;28.90;16.30;;;;;;;-142.75;69.75;78881.94;5031897;28;20410;-76
2021/05/30 02:53:30;;;;;;;28.10;16.37;;;;;;;-142.75;69.42;78881.94;5007665;28;20021;-75
2021/05/30 02:56:00;;;;;;;27.57;15.37;;;;;;;-142.75;69.29;78887.84;5013578;28;20113;-75
2021/05/30 02:58:26;;;;;;;26.73;16.00;;;;;;;-142.75;69.34;78889.81;4993273;28;20068;-76
2021/05/30 03:00:52;;;;;;;29.07;16.47;;;;;;;-142.75;69.07;78889.81;5021563;28;20477;-76
2021/05/30 03:03:17;;;;;;;28.73;17.17;;;;;;;-142.75;69.16;78889.81;5028387;28;20021;-76
2021/05/30 03:05:43;;;;;;;25.65;15.30;;;;;;;-142.75;69.03;78893.78;5000637;28;20037;-75
2021/05/30 03:08:08;;;;;;;27.13;14.80;;;;;;;-142.75;68.92;78899.69;5031575;28;20056;-75
2021/05/30 03:10:33;;;;;;;31.03;15.30;;;;;;;-142.75;68.99;78897.72;5025023;28;20026;-75
2021/05/30 03:12:59;;;;;;;28.02;15.73;;;;;;;-142.75;68.73;78891.78;4994174;28;20277;-75
2021/05/30 03:15:25;;;;;;;33.90;16.40;;;;;;;-142.75;69.06;78893.78;5023320;28;20033;-75
2021/05/30 03:17:50;;;;;;;27.17;15.20;;;;;;;-142.75;68.99;78885.88;5020215;28;20671;-75
2021/05/30 03:20:16;;;;;;;26.90;15.10;;;;;;;-142.75;68.29;78881.94;5024941;28;20045;-75
2021/05/30 03:22:41;;;;;;;26.67;15.77;;;;;;;-142.75;68.78;78878.00;5002378;28;20113;-73
2021/05/30 03:25:07;;;;;;;29.13;15.65;;;;;;;-142.75;68.23;78878.00;5000118;28;20113;-74
2021/05/30 03:27:32;;;;;;;30.80;15.27;;;;;;;-142.75;68.18;78878.00;4994307;28;20080;-75
2021/05/30 03:29:58;;;;;;;27.02;15.63;;;;;;;-142.75;68.42;78879.97;5011689;28;20050;-74
2021/05/30 03:32:23;;;;;;;24.60;14.93;;;;;;;-142.75;68.14;78879.97;5014322;28;20029;-75
2021/05/30 03:34:49;;;;;;;26.98;15.88;;;;;;;-142.75;68.00;78883.91;5003657;28;20028;-75
2021/05/30 03:37:15;;;;;;;27.77;15.32;;;;;;;-142.75;68.18;78879.97;5003465;28;20026;-73
2021/05/30 03:39:42;;;;;;;30.02;15.70;;;;;;;-142.75;68.06;78874.06;5014138;28;20064;-73
2021/05/30 03:42:18;;;;;;;23.13;14.27;;;;;;;-142.75;68.01;78872.09;5011304;28;20026;-74
2021/05/30 03:44:43;;;;;;;29.38;14.88;;;;;;;-142.75;68.09;78866.19;4993536;28;20415;-73
2021/05/30 03:47:12;;;;;;;21.92;13.63;;;;;;;-142.75;68.19;78856.34;5011030;28;20029;-75
2021/05/30 03:49:37;;;;;;;27.30;15.07;;;;;;;-142.75;67.91;78858.31;5010064;28;20084;-75
2021/05/30 03:52:03;;;;;;;27.85;12.90;;;;;;;-142.75;67.67;78856.34;5012494;28;20034;-73
2021/05/30 03:54:28;;;;;;;24.65;14.30;;;;;;;-142.75;67.72;78852.41;5028062;28;20033;-74
2021/05/30 03:56:54;;;;;;;28.03;14.57;;;;;;;-142.75;67.44;78858.31;5006556;28;20498;-75
2021/05/30 03:59:19;;;;;;;29.33;14.30;;;;;;;-142.75;67.76;78850.44;4993487;28;20272;-74
2021/05/30 04:01:44;;;;;;;32.20;14.10;;;;;;;-142.75;67.31;78850.44;5024329;28;20298;-74
2021/05/30 04:04:09;;;;;;;24.17;13.13;;;;;;;-142.75;66.45;78870.13;5013045;28;20029;-75
2021/05/30 04:06:35;;;;;;;20.80;12.17;;;;;;;-142.75;66.62;78856.34;5002541;28;20029;-74
2021/05/30 04:09:00;;;;;;;21.40;12.43;;;;;;;-142.75;65.91;78850.44;5011022;28;20335;-74
2021/05/30 04:11:25;;;;;;;22.17;12.60;;;;;;;-142.75;65.58;78842.56;5010835;28;20037;-73
2021/05/30 04:13:50;;;;;;;21.07;12.83;;;;;;;-142.75;65.97;78824.84;4993316;28;20025;-75
2021/05/30 04:16:16;;;;;;;22.87;11.83;;;;;;;-142.75;66.16;78801.19;5010513;28;20273;-74
2021/05/30 04:18:41;;;;;;;21.33;12.50;;;;;;;-142.75;65.86;78787.41;5010772;28;20030;-75
2021/05/30 04:21:06;;;;;;;19.42;12.20;;;;;;;-142.75;65.65;78765.75;4993156;28;20125;-74
2021/05/30 04:23:32;;;;;;;21.52;11.90;;;;;;;-142.75;65.31;78751.97;5010863;28;20081;-74
2021/05/30 04:25:57;;;;;;;19.15;11.75;;;;;;;-142.75;65.33;78744.09;5010580;28;21390;-74
2021/05/30 04:28:24;;;;;;;17.70;10.82;;;;;;;-142.75;65.46;78730.28;4993356;28;20030;-74
2021/05/30 04:30:50;;;;;;;17.53;11.70;;;;;;;-142.75;65.12;78726.34;5010798;28;20025;-73
2021/05/30 04:33:15;;;;;;;26.13;11.82;;;;;;;-142.75;65.08;78720.44;5009343;28;20383;-74
2021/05/30 04:35:41;;;;;;;16.83;11.30;;;;;;;-142.75;65.41;78722.41;4992777;28;20049;-74
2021/05/30 04:38:06;;;;;;;20.95;12.43;;;;;;;-142.75;65.50;78718.47;5010393;28;20365;-75
2021/05/30 04:40:32;;;;;;;18.65;11.90;;;;;;;-142.75;65.13;78704.69;4993202;28;20053;-75
2021/05/30 04:42:57;;;;;;;22.50;11.98;;;;;;;-142.75;64.68;78700.75;4992892;28;20037;-74
2021/05/30 04:45:23;;;;;;;20.48;11.65;;;;;;;-142.75;64.50;78692.88;4992628;28;20112;-71
2021/05/30 04:47:48;;;;;;;16.70;11.73;;;;;;;-142.75;64.63;78688.94;5010514;28;20145;-73
2021/05/30 04:50:14;;;;;;;20.60;11.40;;;;;;;-142.75;64.07;78688.94;4993034;28;20030;-75
2021/05/30 04:52:41;;;;;;;14.30;10.27;;;;;;;-142.75;63.89;78681.06;5010632;28;20026;-75
2021/05/30 04:55:09;;;;;;;15.67;10.67;;;;;;;-142.75;63.06;78685.00;4991592;28;20040;-75
2021/05/30 04:57:34;;;;;;;20.27;10.80;;;;;;;-142.75;62.73;78675.16;4992664;28;20029;-75
2021/05/30 05:00:00;;;;;;;19.30;10.82;;;;;;;-142.75;62.48;78663.31;4992797;28;20484;-74
2021/05/30 05:02:26;;;;;;;23.17;11.73;;;;;;;-142.75;62.80;78659.38;5010325;28;20109;-75
2021/05/30 05:04:51;;;;;;;17.20;10.02;;;;;;;-142.75;62.30;78645.59;4992750;28;20021;-76
2021/05/30 05:07:17;;;;;;;19.57;10.37;;;;;;;-142.75;61.90;78653.47;5010126;28;20080;-76
2021/05/30 05:09:42;;;;;;;17.93;10.90;;;;;;;-142.75;62.21;78635.75;5010471;28;20833;-75
2021/05/30 05:12:08;;;;;;;15.57;10.23;;;;;;;-142.75;61.90;78639.69;4992799;28;20363;-76
2021/05/30 05:14:33;;;;;;;16.35;10.30;;;;;;;-142.75;61.73;78633.78;5009637;28;20280;-75
2021/05/30 05:16:59;;;;;;;17.38;9.80;;;;;;;-142.75;60.77;78618.03;5012078;28;20074;-75
2021/05/30 05:19:24;;;;;;;18.83;10.90;;;;;;;-142.75;61.34;78621.97;5013388;28;20028;-74
2021/05/30 05:21:49;;;;;;;16.50;10.33;;;;;;;-142.75;62.08;78606.22;5033584;28;20834;-76
2021/05/30 05:24:15;;;;;;;18.08;10.48;;;;;;;-142.75;61.99;78590.47;5033495;28;20026;-74
2021/05/30 05:26:40;;;;;;;18.15;10.90;;;;;;;-142.75;62.05;78574.69;5012089;28;20463;-74
2021/05/30 05:29:06;;;;;;;20.58;10.98;;;;;;;-142.75;61.34;78555.00;4996039;28;20057;-75
2021/05/30 05:31:31;;;;;;;21.20;10.52;;;;;;;-142.75;61.06;78523.50;5013777;28;20113;-74
2021/05/30 05:33:56;;;;;;;17.20;10.00;;;;;;;-142.75;59.93;78497.91;5013707;28;21340;-76
2021/05/30 05:36:22;;;;;;;17.05;10.02;;;;;;;-142.75;60.39;78468.34;4995656;28;20139;-75
2021/05/30 05:38:47;;;;;;;15.48;9.98;;;;;;;-142.75;58.62;78430.94;5013153;28;20032;-75
2021/05/30 05:41:12;;;;;;;13.48;8.75;;;;;;;-142.75;57.63;78383.66;4996024;28;20037;-74
2021/05/30 05:43:38;;;;;;;15.75;9.05;;;;;;;-142.75;57.36;78350.19;5013540;28;20029;-75
2021/05/30 05:46:03;;;;;;;15.50;8.82;;;;;;;-142.75;55.29;78334.44;5012981;28;20033;-76
2021/05/30 05:48:29;;;;;;;17.23;9.68;;;;;;;-142.75;56.06;78291.09;5013449;28;20418;-76
2021/05/30 05:50:54;;;;;;;13.45;8.82;;;;;;;-142.75;54.65;78257.63;5013465;28;20034;-74
2021/05/30 05:53:19;;;;;;;19.33;10.35;;;;;;;-142.75;54.90;78243.84;4995704;28;20502;-76
2021/05/30 05:55:45;;;;;;;17.13;9.18;;;;;;;-142.75;53.97;78188.72;5022939;23;20319;-74
2021/05/30 05:58:11;;;;;;;14.50;8.43;;;;;;;-142.75;52.59;78208.41;5031569;28;20152;-74
2021/05/30 06:00:36;;;;;;;15.23;8.43;;;;;;;-142.75;52.75;78172.94;5024590;28;20057;-74
2021/05/30 06:03:02;;;;;;;15.63;8.32;;;;;;;-142.75;52.12;78115.84;5027185;28;20091;-74
2021/05/30 06:05:27;;;;;;;;;;;;;;;-142.75;51.91;78078.44;5033965;28;20022;-73
2021/05/30 06:07:55;;;;;;;17.55;9.00;;;;;;;-142.75;51.68;78060.72;5021863;28;20394;-74
2021/05/30 06:10:24;;;;;;;13.25;8.23;;;;;;;-142.75;50.95;78019.34;5027554;28;20028;-74
2021/05/30 06:12:51;;;;;;;12.20;8.65;;;;;;;-142.75;49.80;77985.88;5029803;28;20473;-74
2021/05/30 06:15:19;;;;;;;13.60;8.43;;;;;;;-142.75;49.07;77913.03;5025247;28;20060;-72
2021/05/30 06:17:50;;;;;;;12.68;8.75;;;;;;;-142.75;48.76;77877.56;5026444;28;20025;-74
2021/05/30 06:20:15;;;;;;;13.13;8.30;;;;;;;-142.75;49.00;77850.00;5015727;28;20395;-74
2021/05/30 06:22:40;;;;;;;13.65;7.75;;;;;;;-142.75;47.39;77830.31;5018100;28;20021;-74
2021/05/30 06:25:06;;;;;;;13.05;8.27;;;;;;;-142.75;48.44;77832.28;5029198;28;20075;-74
2021/05/30 06:27:31;;;;;;;14.80;8.52;;;;;;;-142.75;46.47;77798.81;5032533;28;20071;-74
2021/05/30 06:29:56;;;;;;;;;;;;;;;-142.75;46.66;77794.88;5033469;28;20029;-74
2021/05/30 06:32:22;;;;;;;14.20;7.75;;;;;;;-142.75;47.82;77751.56;5023857;28;19979;-74
2021/05/30 06:34:47;;;;;;;;;;;;;;;-142.75;46.54;77692.47;5032126;28;20029;-74
2021/05/30 06:37:12;;;;;;;11.38;7.78;;;;;;;-142.75;46.07;77633.41;5016357;28;19917;-73
2021/05/30 06:39:37;;;;;;;;;;;;;;;-142.75;44.27;77680.66;5033039;28;20026;-74
2021/05/30 06:42:03;;;;;;;15.90;8.50;;;;;;;-142.75;46.09;77645.22;5031408;28;19923;-74
2021/05/30 06:44:28;;;;;;;;;;;;;;;-142.75;44.86;77592.06;5033148;28;20033;-74
2021/05/30 06:46:54;;;;;;;13.02;8.77;;;;;;;-142.75;44.23;77613.72;5031451;28;19913;-74
2021/05/30 06:49:19;;;;;;;;;;;;;;;-142.75;43.41;77582.22;5030515;28;20040;-74
2021/05/30 06:51:44;;;;;;;17.80;8.70;;;;;;;-142.75;45.07;77722.00;5024333;28;19943;-73
2021/05/30 06:54:09;;;;;;;;;;;;;;;-142.75;44.91;77637.34;5013477;28;20033;-73
2021/05/30 06:56:35;;;;;;;12.27;8.57;;;;;;;-142.75;43.02;77515.28;5030169;28;20359;-75
2021/05/30 06:59:01;;;;;;;;;;;;;;;-142.75;42.16;77483.78;5032586;28;20049;-74
2021/05/30 07:01:26;;;;;;;16.50;8.68;;;;;;;-142.75;43.02;77440.44;5022533;28;19968;-74
2021/05/30 07:03:51;;;;;;;;;;;;;;;-142.75;43.08;77328.22;5011703;28;20018;-74
2021/05/30 07:06:18;;;;;;;13.70;8.52;;;;;;;-142.75;41.49;77253.41;5025873;28;19921;-74
2021/05/30 07:08:44;;;;;;;16.23;9.70;;;;;;;-142.75;40.85;77251.44;5027891;28;20161;-73
2021/05/30 07:11:10;;;;;;;13.55;8.50;;;;;;;-142.75;40.71;77221.91;5031820;28;20065;-73
2021/05/30 07:13:36;;;;;;;19.00;9.20;;;;;;;-142.75;39.88;77170.72;5032072;28;20040;-75
2021/05/30 07:16:01;;;;;;;14.45;8.90;;;;;;;-142.75;39.46;77121.50;5031966;28;20033;-75
2021/05/30 07:18:27;;;;;;;14.52;8.68;;;;;;;-142.75;39.52;77235.69;5033380;28;20140;-74
2021/05/30 07:20:53;;;;;;;14.07;9.05;;;;;;;-142.75;40.34;77235.69;5031778;28;20075;-74
2021/05/30 07:23:19;;;;;;;15.38;9.13;;;;;;;-142.75;39.40;77137.25;5030219;28;20075;-75
2021/05/30 07:25:45;;;;;;;16.02;9.65;;;;;;;-142.75;39.47;77113.63;5031149;28;20103;-74
2021/05/30 07:28:10;;;;;;;14.40;9.50;;;;;;;-142.75;37.26;77050.63;5030721;28;20470;-74
2021/05/30 07:30:36;;;;;;;13.25;8.85;;;;;;;-142.75;38.24;77011.25;5031533;28;20064;-75
2021/05/30 07:33:03;;;;;;;11.90;8.65;;;;;;;-142.75;37.40;77040.78;5031369;28;20098;-74
2021/05/30 07:35:29;;;;;;;13.90;8.15;;;;;;;-142.75;37.57;76967.94;5030846;28;20029;-75
2021/05/30 07:37:55;;;;;;;14.77;9.80;;;;;;;-142.75;36.96;76901.00;5030948;28;20025;-73
2021/05/30 07:40:21;;;;;;;11.98;9.13;;;;;;;-142.75;39.91;77117.56;5029545;28;20025;-74
2021/05/30 07:42:46;;;;;;;14.07;9.48;;;;;;;-142.75;38.37;77019.13;5030433;28;20029;-74
2021/05/30 07:45:13;;;;;;;13.40;9.75;;;;;;;-142.75;39.05;77208.13;5028047;28;20516;-73
2021/05/30 07:47:40;;;;;;;14.18;9.27;;;;;;;-142.75;38.78;77060.47;5028618;28;20083;-74
2021/05/30 07:50:07;;;;;;;16.30;8.18;;;;;;;-142.75;38.17;76960.06;5029651;28;20109;-74
2021/05/30 07:52:32;;;;;;;16.35;10.10;;;;;;;-142.75;37.29;76877.38;5024752;28;20498;-73
2021/05/30 07:54:57;;;;;;;13.15;8.50;;;;;;;-142.75;37.13;76832.09;5010003;28;20021;-73
2021/05/30 07:57:23;;;;;;;15.23;9.30;;;;;;;-142.75;36.21;76763.22;5014666;28;20100;-73
2021/05/30 07:59:48;;;;;;;15.02;9.15;;;;;;;-142.75;36.89;76879.34;5030315;28;20032;-74
2021/05/30 08:02:13;;;;;;;13.88;9.70;;;;;;;-142.75;36.84;76834.06;5027762;28;20029;-74
2021/05/30 08:04:38;;;;;;;14.30;8.88;;;;;;;-142.75;36.44;76816.34;5019491;28;20025;-74
2021/05/30 08:07:04;;;;;;;18.88;9.35;;;;;;;-142.75;34.77;76802.56;5029414;28;20025;-74
2021/05/30 08:09:30;;;;;;;16.63;9.57;;;;;;;-142.75;36.78;76897.06;5020336;28;20022;-73
2021/05/30 08:11:57;;;;;;;15.05;9.43;;;;;;;-142.75;35.55;76767.16;5009667;28;20117;-73
2021/05/30 08:14:23;;;;;;;13.80;9.20;;;;;;;-142.75;34.51;76645.09;5010613;28;20022;-74
2021/05/30 08:16:49;;;;;;;12.27;8.32;;;;;;;-142.75;34.80;76603.75;5026744;28;20510;-75
2021/05/30 08:19:14;;;;;;;13.48;8.98;;;;;;;-142.75;34.53;76593.91;5022984;28;20026;-74
2021/05/30 08:21:40;;;;;;;15.20;9.68;;;;;;;-142.75;35.14;76861.63;5009174;28;20025;-74
2021/05/30 08:24:06;;;;;;;18.52;10.77;;;;;;;-142.75;35.84;76838.00;5012223;28;20404;-74
2021/05/30 08:26:31;;;;;;;15.35;10.75;;;;;;;-142.75;35.96;76804.53;5027847;28;20048;-75
2021/05/30 08:28:57;;;;;;;15.52;9.85;;;;;;;-142.75;37.63;76871.47;5014807;28;20025;-75
2021/05/30 08:31:22;;;;;;;14.18;9.23;;;;;;;-142.75;36.38;76769.13;5023504;28;20022;-74
2021/05/30 08:33:47;;;;;;;13.98;9.40;;;;;;;-142.75;35.97;76631.31;5010887;28;20026;-75
2021/05/30 08:36:13;;;;;;;14.98;10.07;;;;;;;-142.75;34.57;76552.56;5028333;28;20042;-74
2021/05/30 08:38:38;;;;;;;16.23;9.80;;;;;;;-142.75;34.47;76763.22;5024155;28;20085;-74
2021/05/30 08:41:03;;;;;;;17.00;11.68;;;;;;;-142.75;38.11;77119.53;5009458;28;20026;-74
2021/05/30 08:43:29;;;;;;;17.98;12.00;;;;;;;-142.75;39.92;77210.09;5023178;28;20403;-74
2021/05/30 08:45:54;;;;;;;17.00;12.05;;;;;;;-142.75;41.01;77109.69;5010381;28;20040;-73
2021/05/30 08:48:20;;;;;;;18.45;12.25;;;;;;;-142.75;38.77;77127.41;5027071;28;20032;-73
2021/05/30 08:51:01;;;;;;;16.45;10.90;;;;;;;-142.75;39.45;76981.72;5011055;28;20404;-73
2021/05/30 08:53:27;;;;;;;16.77;11.18;;;;;;;-142.75;37.12;76889.19;5022617;28;20041;-73
2021/05/30 08:55:53;;;;;;;14.63;10.40;;;;;;;-142.75;37.42;76751.41;5033295;28;20025;-74
2021/05/30 08:58:18;;;;;;;15.10;10.55;;;;;;;-142.75;35.99;76641.16;5017889;28;20030;-74
2021/05/30 09:00:43;;;;;;;15.18;10.15;;;;;;;-142.75;35.20;76749.44;5014367;28;20038;-74
2021/05/30 09:03:16;;;;;;;16.35;11.43;;;;;;;-142.75;38.06;77042.75;5013690;28;20105;-74
2021/05/30 09:05:42;;;;;;;16.98;10.73;;;;;;;-142.75;37.13;76867.53;5013159;28;20444;-73
2021/05/30 09:08:11;;;;;;;15.98;10.65;;;;;;;-142.75;36.06;76645.09;5014480;28;20067;-74
2021/05/30 09:10:36;;;;;;;15.63;10.73;;;;;;;-142.75;34.88;76552.56;5014629;28;20033;-74
2021/05/30 09:13:16;;;;;;;19.58;11.90;;;;;;;-142.75;35.73;76857.69;5014313;28;20022;-74
2021/05/30 09:18:18;;;;;;;14.27;11.07;;;;;;;-142.75;38.45;76950.22;5014134;28;20030;-72
2021/05/30 09:20:50;;;;;;;17.67;11.23;;;;;;;-142.75;37.67;76717.94;5028816;28;20021;-73
2021/05/30 09:23:28;;;;;;;15.88;10.82;;;;;;;-142.75;34.80;76534.84;5032763;28;20300;-74
2021/05/30 09:26:10;;;;;;;15.73;11.30;;;;;;;-142.75;34.19;76723.84;5032184;28;20029;-75
2021/05/30 09:28:40;;;;;;;17.83;12.30;;;;;;;-142.75;37.96;76969.91;5030114;28;20041;-71
2021/05/30 09:31:05;;;;;;;16.70;12.43;;;;;;;-142.75;37.37;76930.53;5031744;28;20029;-72
2021/05/30 09:33:33;;;;;;;15.05;10.63;;;;;;;-142.75;36.46;76782.91;5016085;28;20084;-74
2021/05/30 09:36:03;;;;;;;17.90;11.23;;;;;;;-142.75;36.23;76566.34;5013903;28;20034;-73
2021/05/30 09:38:35;;;;;;;12.32;10.00;;;;;;;-142.75;33.41;76424.63;5012966;28;20048;-73
2021/05/30 09:41:14;;;;;;;15.60;10.73;;;;;;;-142.75;33.77;76538.78;5014417;28;20030;-74
2021/05/30 09:43:53;;;;;;;15.05;11.13;;;;;;;-142.75;37.33;76879.34;5031550;28;20399;-73
2021/05/30 09:46:20;;;;;;;17.35;10.77;;;;;;;-142.75;38.96;76989.59;5033216;28;20502;-74
2021/05/30 09:48:51;;;;;;;18.35;11.80;;;;;;;-142.75;38.65;76924.63;5019790;28;20034;-74
2021/05/30 09:51:37;;;;;;;16.90;10.70;;;;;;;-142.75;38.79;76912.81;5031091;28;20502;-74
2021/05/30 09:54:13;;;;;;;15.90;11.98;;;;;;;-142.75;37.11;76920.69;5033393;28;20475;-73
2021/05/30 09:56:41;;;;;;;19.93;11.33;;;;;;;-142.75;38.69;76956.13;5032829;28;20147;-75
2021/05/30 09:59:15;;;;;;;14.23;10.98;;;;;;;-142.75;38.43;77086.06;5032031;28;20619;-73
2021/05/30 10:01:59;;;;;;;18.35;11.60;;;;;;;-142.75;41.37;77156.94;5032135;28;20041;-74
2021/05/30 10:04:30;;;;;;;17.48;12.20;;;;;;;-142.75;40.13;77109.69;5032073;28;20028;-74
2021/05/30 10:06:56;;;;;;;17.20;11.15;;;;;;;-142.75;38.84;76798.66;5032050;28;20048;-74
2021/05/30 10:09:23;;;;;;;17.13;10.70;;;;;;;-142.75;36.32;76666.75;5033247;28;20026;-73
2021/05/30 10:11:48;;;;;;;17.38;10.63;;;;;;;-142.75;37.49;76780.94;5032989;28;20108;-74
2021/05/30 10:14:14;;;;;;;15.00;11.27;;;;;;;-142.75;37.89;76969.91;5032169;28;20112;-74
2021/05/30 10:16:40;;;;;;;15.52;11.30;;;;;;;-142.75;37.46;76816.34;5032883;28;20022;-73
2021/05/30 10:19:07;;;;;;;15.35;11.65;;;;;;;-142.75;35.68;76808.50;5033557;28;20029;-74
2021/05/30 10:21:34;;;;;;;15.57;11.43;;;;;;;-142.75;37.27;76763.22;5032862;28;20026;-73
2021/05/30 10:24:00;;;;;;;16.63;12.48;;;;;;;-142.75;37.36;76857.69;5032277;28;20022;-75
2021/05/30 10:26:25;;;;;;;16.95;12.10;;;;;;;-142.75;38.08;76987.63;5032794;28;20038;-75
2021/05/30 10:29:09;;;;;;;15.68;11.57;;;;;;;-142.75;38.24;76901.00;5033267;28;20033;-74
2021/05/30 10:31:35;;;;;;;18.48;13.07;;;;;;;-142.75;37.66;77054.56;5032721;28;20117;-72
2021/05/30 10:34:10;;;;;;;20.98;13.15;;;;;;;-142.75;38.37;77097.88;5032855;28;20037;-74
2021/05/30 10:37:04;;;;;;;19.63;12.90;;;;;;;-142.75;39.47;77058.50;5032276;28;20030;-73
2021/05/30 10:39:30;;;;;;;17.27;11.88;;;;;;;-142.75;37.58;76792.75;5028138;28;20033;-73
2021/05/30 10:42:23;;;;;;;20.85;12.48;;;;;;;-142.75;34.17;76690.38;5032940;28;20033;-74
2021/05/30 10:45:05;;;;;;;17.60;12.48;;;;;;;-142.75;36.69;76893.13;5016058;28;20032;-73
2021/05/30 10:47:43;;;;;;;20.38;13.90;;;;;;;-142.75;38.20;77109.69;5027810;28;20125;-74
2021/05/30 10:50:32;;;;;;;18.77;14.60;;;;;;;-142.75;39.72;77109.69;5013129;28;20479;-74
2021/05/30 10:52:58;;;;;;;23.25;14.43;;;;;;;-142.75;39.64;76971.88;5012614;28;20045;-74
2021/05/30 10:55:31;;;;;;;20.65;14.23;;;;;;;-142.75;38.65;77105.75;5012114;28;20061;-73
2021/05/30 10:57:57;;;;;;;23.02;15.35;;;;;;;-142.75;40.46;77174.66;5010974;28;20080;-76
2021/05/30 11:00:26;;;;;;;20.10;13.57;;;;;;;-142.75;39.80;77151.03;5011045;28;20026;-73
2021/05/30 11:03:06;;;;;;;19.83;13.57;;;;;;;-142.75;39.93;77180.56;5012478;28;20072;-75
2021/05/30 11:05:42;;;;;;;18.60;12.57;;;;;;;-142.75;37.29;76971.88;5011670;28;20033;-73
2021/05/30 11:08:30;;;;;;;18.60;12.93;;;;;;;-142.75;38.51;76820.28;5031217;28;20037;-73